Time;durP1;ratioP1;P1;durP2;ratioP2;P2;SDS_P1;SDS_P2;PMS_P1;PMS_P2;Temp;Humidity;BMP_temperature;BMP_pressure;BME280_temperature;BME280_humidity;BME280_pressure;Samples;Min_cycle;Max_cycle;Signal;HPM_P1;HPM_P2
2022/02/12 00:00:14;;;;;;;6.68;1.60;;;-1.00;99.90;;;;;;6215243;23;20220;-67
2022/02/12 00:02:40;;;;;;;3.30;1.27;;;-1.00;99.90;;;;;;6216784;23;20222;-67
2022/02/12 00:05:07;;;;;;;5.32;1.85;;;-0.90;99.90;;;;;;6216309;23;20149;-66
2022/02/12 00:07:33;;;;;;;2.58;1.08;;;-0.90;99.90;;;;;;6216213;23;20149;-67
2022/02/12 00:09:58;;;;;;;6.03;1.42;;;-0.90;99.90;;;;;;6218263;23;20260;-66
2022/02/12 00:12:24;;;;;;;3.53;1.23;;;-0.80;99.90;;;;;;6218561;23;20141;-67
2022/02/12 00:14:49;;;;;;;3.10;1.20;;;-0.70;99.90;;;;;;6217698;23;20141;-67
2022/02/12 00:17:15;;;;;;;7.47;1.55;;;-0.70;99.90;;;;;;6218397;23;20223;-67
2022/02/12 00:19:40;;;;;;;5.90;1.58;;;-0.70;99.90;;;;;;6218538;23;20149;-67
2022/02/12 00:22:06;;;;;;;6.30;1.38;;;-0.70;99.90;;;;;;6218137;23;20450;-67
2022/02/12 00:24:31;;;;;;;7.60;1.58;;;-0.70;99.90;;;;;;6217010;23;20553;-66
2022/02/12 00:26:57;;;;;;;9.95;1.95;;;-0.60;99.90;;;;;;6218167;23;20152;-66
2022/02/12 00:29:22;;;;;;;2.90;1.55;;;-0.60;99.90;;;;;;6217893;23;20156;-66
2022/02/12 00:31:48;;;;;;;8.63;1.63;;;-0.70;99.90;;;;;;6216668;23;20163;-67
2022/02/12 00:34:13;;;;;;;8.43;1.35;;;-0.70;99.90;;;;;;6218004;23;20137;-67
2022/02/12 00:36:39;;;;;;;8.65;1.50;;;-0.70;99.90;;;;;;6218277;23;20145;-67
2022/02/12 00:39:05;;;;;;;6.35;1.80;;;-0.70;99.90;;;;;;6218003;23;20141;-67
2022/02/12 00:41:31;;;;;;;6.95;1.63;;;-0.80;99.90;;;;;;6218854;23;20483;-67
2022/02/12 00:43:57;;;;;;;8.68;1.70;;;-0.80;99.90;;;;;;6217248;23;20433;-67
2022/02/12 00:46:22;;;;;;;6.97;1.85;;;-0.90;99.90;;;;;;6218347;23;20242;-66
2022/02/12 00:48:48;;;;;;;8.32;1.52;;;-0.90;99.90;;;;;;6218059;23;20173;-67
2022/02/12 00:51:14;;;;;;;6.85;1.90;;;-0.90;99.90;;;;;;6217737;23;20230;-67
2022/02/12 00:53:40;;;;;;;5.88;1.50;;;-0.90;99.90;;;;;;6191693;23;20149;-67
2022/02/12 00:56:05;;;;;;;7.72;1.50;;;-0.90;99.90;;;;;;6217813;23;20549;-66
2022/02/12 00:58:31;;;;;;;4.95;1.45;;;-0.90;99.90;;;;;;6217872;23;20148;-66
2022/02/12 01:00:57;;;;;;;5.88;1.73;;;-0.90;99.90;;;;;;6218250;23;20484;-66
2022/02/12 01:03:22;;;;;;;6.63;1.40;;;-1.00;99.90;;;;;;6218261;23;20141;-66
2022/02/12 01:05:48;;;;;;;5.18;1.85;;;-1.00;99.90;;;;;;6217044;23;20149;-66
2022/02/12 01:08:13;;;;;;;3.97;1.42;;;-1.00;99.90;;;;;;6217153;23;20203;-66
2022/02/12 01:10:39;;;;;;;4.80;1.75;;;-0.90;99.90;;;;;;6218820;23;20175;-66
2022/02/12 01:13:04;;;;;;;6.25;1.70;;;-0.90;99.90;;;;;;6218717;23;20141;-67
2022/02/12 01:15:32;;;;;;;4.97;1.52;;;-0.90;99.90;;;;;;6219166;23;20141;-67
2022/02/12 01:17:57;;;;;;;7.50;1.45;;;-0.90;99.90;;;;;;6192385;23;20156;-67
2022/02/12 01:20:23;;;;;;;6.75;1.80;;;-1.00;99.90;;;;;;6217264;23;20455;-67
2022/02/12 01:22:49;;;;;;;3.47;1.58;;;-1.00;99.90;;;;;;6218370;23;20502;-67
2022/02/12 01:25:15;;;;;;;9.20;1.77;;;-1.00;99.90;;;;;;6217587;23;20549;-67
2022/02/12 01:27:41;;;;;;;5.60;1.70;;;-1.00;99.90;;;;;;6218066;23;20490;-66
2022/02/12 01:30:07;;;;;;;5.30;1.80;;;-1.00;99.90;;;;;;6219138;23;20173;-66
2022/02/12 01:32:33;;;;;;;6.05;1.23;;;-1.00;99.90;;;;;;6218204;23;20558;-66
2022/02/12 01:34:59;;;;;;;5.43;1.65;;;-1.00;99.90;;;;;;6217419;23;20160;-66
2022/02/12 01:37:24;;;;;;;8.23;2.00;;;-1.00;99.90;;;;;;6216379;23;20474;-67
2022/02/12 01:39:50;;;;;;;7.72;1.63;;;-1.00;99.90;;;;;;6216315;23;20153;-66
2022/02/12 01:42:16;;;;;;;9.63;1.60;;;-1.00;99.90;;;;;;6217844;23;20160;-66
2022/02/12 01:44:43;;;;;;;2.70;1.23;;;-1.00;99.90;;;;;;6215924;23;20561;-66
2022/02/12 01:47:10;;;;;;;7.15;1.85;;;-1.00;99.90;;;;;;6217318;23;20153;-66
2022/02/12 01:49:37;;;;;;;5.25;1.58;;;-1.10;99.90;;;;;;6215784;23;20169;-66
2022/02/12 01:52:12;;;;;;;7.60;1.85;;;-1.10;99.90;;;;;;6191150;23;20184;-66
2022/02/12 01:54:38;;;;;;;6.05;1.77;;;-1.10;99.90;;;;;;6217086;23;20195;-67
2022/02/12 01:57:05;;;;;;;5.00;1.40;;;-1.10;99.90;;;;;;6217126;23;20141;-66
2022/02/12 01:59:31;;;;;;;5.00;1.67;;;-1.10;99.90;;;;;;6217005;23;20439;-66
2022/02/12 02:01:57;;;;;;;7.45;1.77;;;-1.10;99.90;;;;;;6217388;23;20173;-67
2022/02/12 02:04:23;;;;;;;3.38;1.50;;;-1.20;99.90;;;;;;6217296;23;20152;-67
2022/02/12 02:06:49;;;;;;;7.13;1.77;;;-1.20;99.90;;;;;;6215750;23;20152;-66
2022/02/12 02:09:17;;;;;;;6.50;1.67;;;-1.30;99.90;;;;;;6215685;23;20137;-68
2022/02/12 02:11:42;;;;;;;6.80;1.58;;;-1.30;99.90;;;;;;6215949;23;20168;-67
2022/02/12 02:14:08;;;;;;;8.35;1.60;;;-1.30;99.90;;;;;;6216930;23;20141;-67
2022/02/12 02:16:34;;;;;;;10.20;2.05;;;-1.30;99.90;;;;;;6217202;23;20165;-66
2022/02/12 02:19:04;;;;;;;8.02;2.13;;;-1.30;99.90;;;;;;6216080;23;20553;-66
2022/02/12 02:21:31;;;;;;;5.35;2.20;;;-1.30;99.90;;;;;;6217817;23;20159;-66
2022/02/12 02:23:57;;;;;;;9.95;2.30;;;-1.30;99.90;;;;;;6222870;23;20605;-67
2022/02/12 02:26:22;;;;;;;6.13;2.30;;;-1.20;99.90;;;;;;6231540;23;20176;-66
2022/02/12 02:28:48;;;;;;;8.30;2.80;;;-1.20;99.90;;;;;;6233808;23;20168;-67
2022/02/12 02:31:14;;;;;;;6.70;2.70;;;-1.10;99.90;;;;;;6233528;23;20461;-67
2022/02/12 02:33:39;;;;;;;7.95;2.80;;;-1.10;99.90;;;;;;6237409;23;20145;-66
2022/02/12 02:36:05;;;;;;;7.50;2.42;;;-1.10;99.90;;;;;;6237896;23;20200;-67
2022/02/12 02:38:31;;;;;;;8.32;2.50;;;-1.20;99.90;;;;;;6237385;23;20141;-67
2022/02/12 02:40:57;;;;;;;9.48;2.38;;;-1.20;99.90;;;;;;6240812;23;20163;-67
2022/02/12 02:43:23;;;;;;;10.20;2.83;;;-1.20;99.90;;;;;;6236289;23;20132;-66
2022/02/12 02:45:49;;;;;;;10.13;2.38;;;-1.20;99.90;;;;;;6239721;23;20144;-67
2022/02/12 02:48:15;;;;;;;8.23;2.42;;;-1.20;99.90;;;;;;6231470;23;20142;-66
2022/02/12 02:56:14;;;;;;;11.15;2.08;;;-1.30;99.90;;;;;;6217076;23;20140;-67
2022/02/12 02:58:42;;;;;;;9.93;3.00;;;-1.30;99.90;;;;;;6217577;23;20153;-66
2022/02/12 03:01:10;;;;;;;10.60;2.45;;;-1.30;99.90;;;;;;6218017;23;20156;-66
2022/02/12 03:03:37;;;;;;;10.00;2.75;;;-1.40;99.90;;;;;;6218835;23;20141;-66
2022/02/12 03:06:03;;;;;;;3.25;2.00;;;-1.40;99.90;;;;;;6218528;23;20429;-67
2022/02/12 03:08:29;;;;;;;6.25;2.13;;;-1.50;99.90;;;;;;6217065;23;20175;-67
2022/02/12 03:10:56;;;;;;;5.88;2.60;;;-1.60;99.90;;;;;;6218959;23;20175;-67
2022/02/12 03:13:21;;;;;;;12.32;3.13;;;-1.60;99.90;;;;;;6219061;23;20151;-67
2022/02/12 03:15:47;;;;;;;8.52;2.60;;;-1.60;99.90;;;;;;6218220;23;20573;-67
2022/02/12 03:18:13;;;;;;;7.57;2.63;;;-1.70;99.90;;;;;;6192062;23;20188;-67
2022/02/12 03:20:38;;;;;;;7.65;3.05;;;-1.70;99.90;;;;;;6217484;23;20194;-66
2022/02/12 03:23:05;;;;;;;9.75;2.80;;;-1.80;99.90;;;;;;6217615;23;20152;-66
2022/02/12 03:25:31;;;;;;;10.38;3.50;;;-1.80;99.90;;;;;;6216269;23;20619;-67
2022/02/12 03:27:58;;;;;;;8.88;2.97;;;-1.80;99.90;;;;;;6217925;23;20144;-67
2022/02/12 03:30:28;;;;;;;7.20;2.88;;;-1.90;99.90;;;;;;6214929;23;20228;-67
2022/02/12 03:32:54;;;;;;;9.50;3.15;;;-1.90;99.90;;;;;;6215110;23;20542;-67
2022/02/12 03:35:22;;;;;;;10.68;3.17;;;-1.90;99.90;;;;;;6215111;23;20152;-66
2022/02/12 03:37:49;;;;;;;10.55;3.38;;;-1.90;99.90;;;;;;6215137;23;20136;-67
2022/02/12 03:40:15;;;;;;;7.18;2.92;;;-2.00;99.90;;;;;;6215399;23;20291;-67
2022/02/12 03:42:41;;;;;;;14.07;4.10;;;-1.90;99.90;;;;;;6216716;23;20149;-67
2022/02/12 03:45:07;;;;;;;7.60;3.30;;;-2.00;99.90;;;;;;6218543;23;20215;-68
2022/02/12 03:47:32;;;;;;;11.48;3.45;;;-2.00;99.90;;;;;;6217194;23;20163;-68
2022/02/12 03:49:58;;;;;;;9.02;3.17;;;-2.00;99.90;;;;;;6218325;23;20175;-67
2022/02/12 03:52:23;;;;;;;6.28;3.15;;;-2.00;99.90;;;;;;6217495;23;20144;-66
2022/02/12 03:54:49;;;;;;;10.30;3.30;;;-2.10;99.90;;;;;;6218494;23;20147;-66
2022/02/12 03:57:14;;;;;;;10.05;3.78;;;-2.10;99.90;;;;;;6218462;23;20145;-67
2022/02/12 03:59:40;;;;;;;12.55;3.17;;;-2.10;99.90;;;;;;6217535;23;20173;-66
2022/02/12 04:02:06;;;;;;;7.60;2.80;;;-2.10;99.90;;;;;;6229745;23;20151;-66
2022/02/12 04:04:32;;;;;;;9.00;3.30;;;-2.20;99.90;;;;;;6218730;23;20231;-67
2022/02/12 04:06:58;;;;;;;14.13;3.30;;;-2.20;99.90;;;;;;6218998;23;20145;-67
2022/02/12 04:09:23;;;;;;;5.85;3.65;;;-2.20;99.90;;;;;;6219416;23;20291;-68
2022/02/12 04:11:49;;;;;;;8.98;3.13;;;-2.20;99.90;;;;;;6217411;23;20476;-69
2022/02/12 04:14:14;;;;;;;6.90;2.80;;;-2.30;99.90;;;;;;6218305;23;20546;-67
2022/02/12 04:16:40;;;;;;;8.73;2.60;;;-2.30;99.90;;;;;;6218263;23;20145;-67
2022/02/12 04:19:05;;;;;;;5.75;2.53;;;-2.20;99.90;;;;;;6218661;23;20612;-67
2022/02/12 04:21:31;;;;;;;11.13;2.95;;;-2.30;99.90;;;;;;6218044;23;20152;-68
2022/02/12 04:23:56;;;;;;;13.10;2.92;;;-2.30;99.90;;;;;;6218514;23;20207;-67
2022/02/12 04:26:22;;;;;;;13.68;3.47;;;-2.30;99.90;;;;;;6218112;23;20206;-67
2022/02/12 04:28:47;;;;;;;7.63;3.03;;;-2.30;99.90;;;;;;6216869;23;20141;-66
2022/02/12 04:31:13;;;;;;;10.13;3.05;;;-2.40;99.90;;;;;;6218216;23;20231;-66
2022/02/12 04:33:38;;;;;;;9.68;2.72;;;-2.40;99.90;;;;;;6218156;23;20137;-68
2022/02/12 04:36:04;;;;;;;9.48;3.15;;;-2.40;99.90;;;;;;6217394;23;20211;-67
2022/02/12 04:38:29;;;;;;;9.30;3.40;;;-2.50;99.90;;;;;;6218189;23;20137;-66
2022/02/12 04:40:55;;;;;;;8.15;2.70;;;-2.50;99.90;;;;;;6218086;23;20172;-67
2022/02/12 04:43:20;;;;;;;6.68;2.88;;;-2.50;99.90;;;;;;6218509;23;20145;-66
2022/02/12 04:45:46;;;;;;;6.53;2.80;;;-2.60;99.90;;;;;;6217289;23;20153;-67
2022/02/12 04:48:11;;;;;;;10.73;2.78;;;-2.60;99.90;;;;;;6218385;23;20145;-67
2022/02/12 04:50:37;;;;;;;5.25;2.00;;;-2.70;99.90;;;;;;6219235;23;20165;-68
2022/02/12 04:53:03;;;;;;;11.13;2.65;;;-2.70;99.90;;;;;;6219164;23;20145;-66
2022/02/12 04:55:28;;;;;;;5.53;2.30;;;-2.80;99.90;;;;;;6217410;23;20199;-67
2022/02/12 04:57:54;;;;;;;8.15;2.33;;;-2.80;99.90;;;;;;6218555;23;20157;-68
2022/02/12 05:00:20;;;;;;;9.73;2.50;;;-2.80;99.90;;;;;;6218596;23;20453;-67
2022/02/12 05:02:46;;;;;;;9.85;2.35;;;-2.90;99.90;;;;;;6217693;23;20576;-66
2022/02/12 05:05:12;;;;;;;4.63;1.92;;;-2.80;99.90;;;;;;6218469;23;20149;-67
2022/02/12 05:07:40;;;;;;;5.70;2.13;;;-2.90;99.90;;;;;;6218020;23;20195;-66
2022/02/12 05:10:08;;;;;;;10.70;2.10;;;-2.90;99.90;;;;;;6218401;23;20169;-66
2022/02/12 05:12:34;;;;;;;9.20;2.15;;;-2.90;99.90;;;;;;6192052;23;20467;-67
2022/02/12 05:15:00;;;;;;;4.85;2.10;;;-2.90;99.90;;;;;;6219623;23;20191;-66
2022/02/12 05:17:26;;;;;;;10.00;2.30;;;-2.90;99.90;;;;;;6221559;23;20141;-64
2022/02/12 05:19:51;;;;;;;4.90;2.05;;;-2.90;99.90;;;;;;6226632;23;20137;-65
2022/02/12 05:22:17;;;;;;;3.97;2.10;;;-3.00;99.90;;;;;;6229027;23;20149;-65
2022/02/12 05:24:42;;;;;;;7.03;2.20;;;-3.00;99.90;;;;;;6228857;23;20272;-64
2022/02/12 05:27:09;;;;;;;6.28;2.13;;;-3.00;99.90;;;;;;6227874;23;20144;-64
2022/02/12 05:29:35;;;;;;;5.05;1.60;;;-3.10;99.90;;;;;;6226548;23;20149;-64
2022/02/12 05:32:01;;;;;;;7.63;1.92;;;-3.00;99.90;;;;;;6226557;23;20161;-64
2022/02/12 05:34:27;;;;;;;6.22;2.45;;;-3.10;99.90;;;;;;6227885;23;20515;-64
2022/02/12 05:36:52;;;;;;;10.57;2.13;;;-3.10;99.90;;;;;;6226041;23;20193;-63
2022/02/12 05:39:18;;;;;;;4.82;1.50;;;-3.10;99.90;;;;;;6217998;23;20171;-65
2022/02/12 05:41:43;;;;;;;10.52;2.15;;;-3.10;99.90;;;;;;6220939;23;20144;-64
2022/02/12 05:44:09;;;;;;;7.68;2.00;;;-3.20;99.90;;;;;;6218718;23;20153;-64
2022/02/12 05:46:34;;;;;;;7.10;1.95;;;-3.20;99.90;;;;;;6217613;23;20542;-64
2022/02/12 05:49:00;;;;;;;8.85;2.17;;;-3.20;99.90;;;;;;6191517;23;20149;-64
2022/02/12 05:51:30;;;;;;;3.60;1.45;;;-3.20;99.90;;;;;;6217746;23;20161;-64
2022/02/12 05:53:57;;;;;;;6.47;1.63;;;-3.20;99.90;;;;;;6218569;23;20215;-64
2022/02/12 05:56:23;;;;;;;4.15;1.77;;;-3.20;99.90;;;;;;6217840;23;20220;-64
2022/02/12 05:58:49;;;;;;;3.78;1.40;;;-3.20;99.90;;;;;;6217812;23;20418;-65
2022/02/12 06:01:14;;;;;;;8.15;1.75;;;-3.20;99.90;;;;;;6218379;23;20148;-65
2022/02/12 06:03:40;;;;;;;5.28;1.38;;;-3.20;99.90;;;;;;6217651;23;20222;-64
2022/02/12 06:06:06;;;;;;;3.95;1.90;;;-3.20;99.90;;;;;;6217507;23;20144;-65
2022/02/12 06:08:32;;;;;;;4.57;1.75;;;-3.20;99.90;;;;;;6217630;23;20153;-65
2022/02/12 06:10:58;;;;;;;8.35;2.10;;;-3.10;99.90;;;;;;6217679;23;20176;-64
2022/02/12 06:13:24;;;;;;;6.32;2.03;;;-3.10;99.90;;;;;;6218054;23;20152;-64
2022/02/12 06:15:50;;;;;;;5.68;1.90;;;-3.10;99.90;;;;;;6191626;23;20145;-65
2022/02/12 06:18:15;;;;;;;4.40;2.00;;;-3.10;99.90;;;;;;6216509;23;20553;-64
2022/02/12 06:20:41;;;;;;;7.28;2.20;;;-3.10;99.90;;;;;;6218088;23;20160;-64
2022/02/12 06:23:06;;;;;;;5.28;1.70;;;-3.10;99.90;;;;;;6218219;23;20152;-63
2022/02/12 06:25:32;;;;;;;3.20;1.85;;;-3.10;99.90;;;;;;6219348;23;20167;-63
2022/02/12 06:27:58;;;;;;;6.53;2.40;;;-3.10;99.90;;;;;;6218859;23;20156;-65
2022/02/12 06:30:23;;;;;;;10.10;2.25;;;-3.10;99.90;;;;;;6219105;23;20207;-63
2022/02/12 06:32:49;;;;;;;7.82;2.20;;;-3.10;99.90;;;;;;6221256;23;20141;-64
2022/02/12 06:35:14;;;;;;;6.25;2.58;;;-3.10;99.90;;;;;;6225672;23;20148;-66
2022/02/12 06:37:40;;;;;;;5.47;2.40;;;-3.00;99.90;;;;;;6227100;23;20137;-64
2022/02/12 06:40:06;;;;;;;8.98;2.72;;;-3.00;99.90;;;;;;6226337;23;20141;-64
2022/02/12 06:42:31;;;;;;;9.15;2.58;;;-3.00;99.90;;;;;;6225845;23;20183;-64
2022/02/12 06:44:57;;;;;;;12.80;2.60;;;-3.00;99.90;;;;;;6225877;23;20179;-66
2022/02/12 06:47:22;;;;;;;12.52;3.25;;;-3.00;99.90;;;;;;6227050;23;20553;-63
2022/02/12 06:49:48;;;;;;;9.35;2.90;;;-3.00;99.90;;;;;;6227675;23;20172;-65
2022/02/12 06:52:13;;;;;;;8.27;3.00;;;-2.90;99.90;;;;;;6221902;23;20137;-65
2022/02/12 06:54:39;;;;;;;11.30;3.78;;;-2.90;99.90;;;;;;6220158;23;20280;-63
2022/02/12 06:57:04;;;;;;;10.40;3.72;;;-2.80;99.90;;;;;;6226377;23;20244;-64
2022/02/12 06:59:30;;;;;;;12.00;4.63;;;-2.80;99.90;;;;;;6223111;23;20200;-64
2022/02/12 07:01:55;;;;;;;6.57;3.65;;;-2.70;99.90;;;;;;6220542;23;20188;-64
2022/02/12 07:04:21;;;;;;;14.77;4.22;;;-2.60;99.90;;;;;;6220959;23;20224;-64
2022/02/12 07:06:46;;;;;;;9.85;4.30;;;-2.40;99.90;;;;;;6218760;23;20199;-63
2022/02/12 07:09:12;;;;;;;9.82;4.50;;;-2.40;99.90;;;;;;6218937;23;20453;-64
2022/02/12 07:11:38;;;;;;;11.27;4.43;;;-2.30;99.90;;;;;;6218716;23;20520;-64
2022/02/12 07:14:04;;;;;;;11.02;4.68;;;-2.30;99.90;;;;;;6221561;23;20137;-63
2022/02/12 07:16:30;;;;;;;12.18;4.28;;;-2.20;99.90;;;;;;6223230;23;20147;-64
2022/02/12 07:18:55;;;;;;;9.82;4.03;;;-2.20;99.90;;;;;;6221345;23;20268;-64
2022/02/12 07:21:21;;;;;;;10.93;4.07;;;-2.20;99.90;;;;;;6217126;23;20453;-64
2022/02/12 07:23:46;;;;;;;7.25;4.22;;;-2.10;99.90;;;;;;6215922;23;20600;-64
2022/02/12 07:26:12;;;;;;;15.02;4.65;;;-2.10;99.90;;;;;;6217020;23;20214;-62
2022/02/12 07:28:42;;;;;;;15.23;5.20;;;-2.10;99.90;;;;;;6217648;23;20206;-64
2022/02/12 07:31:08;;;;;;;14.98;4.75;;;-2.10;99.90;;;;;;6217331;23;20173;-64
2022/02/12 07:33:33;;;;;;;11.18;5.50;;;-2.00;99.90;;;;;;6218561;23;20228;-63
2022/02/12 07:35:59;;;;;;;12.57;5.45;;;-2.00;99.90;;;;;;6219701;23;20195;-63
2022/02/12 07:38:24;;;;;;;13.57;5.07;;;-2.00;99.90;;;;;;6219023;23;20145;-63
2022/02/12 07:40:50;;;;;;;17.25;5.68;;;-1.90;99.90;;;;;;6218112;23;20141;-65
2022/02/12 07:43:15;;;;;;;11.07;5.35;;;-1.90;99.90;;;;;;6217480;23;20149;-63
2022/02/12 07:45:41;;;;;;;11.45;5.13;;;-1.80;99.90;;;;;;6217372;23;20149;-64
2022/02/12 07:48:06;;;;;;;16.05;5.88;;;-1.80;99.90;;;;;;6218716;23;20167;-62
2022/02/12 07:50:32;;;;;;;13.20;6.25;;;-1.80;99.90;;;;;;6218898;23;20161;-63
2022/02/12 07:52:57;;;;;;;17.00;6.10;;;-1.70;99.90;;;;;;6226418;23;20148;-64
2022/02/12 07:55:23;;;;;;;17.83;6.25;;;-1.70;99.90;;;;;;6231113;23;20372;-65
2022/02/12 07:57:48;;;;;;;12.80;5.80;;;-1.70;99.90;;;;;;6229535;23;20142;-65
2022/02/12 08:00:15;;;;;;;14.90;6.18;;;-1.60;99.90;;;;;;6235348;23;20145;-65
2022/02/12 08:02:41;;;;;;;19.08;6.47;;;-1.50;99.90;;;;;;6234980;23;20145;-63
2022/02/12 08:05:08;;;;;;;12.82;6.40;;;-1.40;99.90;;;;;;6234878;23;20152;-64
2022/02/12 08:07:37;;;;;;;14.38;6.95;;;-1.40;99.90;;;;;;6236462;23;20149;-64
2022/02/12 08:11:22;;;;;;;13.15;6.32;;;-1.30;99.90;;;;;;6237352;23;20216;-64
2022/02/12 08:12:52;;;;;;;12.73;5.53;;;-1.20;99.90;;;;;;6235674;23;20133;-64
2022/02/12 08:15:18;;;;;;;11.38;5.20;;;-1.10;99.90;;;;;;6224062;23;20237;-64
2022/02/12 08:17:43;;;;;;;15.27;5.45;;;-1.10;99.90;;;;;;6219624;23;20145;-64
2022/02/12 08:20:09;;;;;;;12.35;5.22;;;-1.10;99.90;;;;;;6219258;23;20145;-65
2022/02/12 08:22:35;;;;;;;13.60;4.88;;;-1.00;99.90;;;;;;6219175;23;20149;-64
2022/02/12 08:25:00;;;;;;;10.18;4.95;;;-1.00;99.90;;;;;;6219479;23;20183;-65
2022/02/12 08:27:28;;;;;;;16.42;5.75;;;-1.00;99.90;;;;;;6218993;23;20145;-62
2022/02/12 08:29:54;;;;;;;16.48;6.28;;;-0.90;99.90;;;;;;6218909;23;20173;-66
2022/02/12 08:32:21;;;;;;;16.45;6.85;;;-0.80;99.90;;;;;;6219073;23;20621;-64
2022/02/12 08:34:47;;;;;;;17.45;5.80;;;-0.80;99.90;;;;;;6219259;23;20145;-63
2022/02/12 08:37:13;;;;;;;9.43;4.45;;;-0.80;99.90;;;;;;6219336;23;20144;-64
2022/02/12 08:39:38;;;;;;;12.52;5.03;;;-0.70;99.90;;;;;;6219431;23;20227;-63
2022/02/12 08:42:05;;;;;;;10.57;4.93;;;-0.60;99.90;;;;;;6217643;23;20168;-64
2022/02/12 08:44:30;;;;;;;12.05;4.50;;;-0.60;99.90;;;;;;6219128;23;20145;-64
2022/02/12 08:46:56;;;;;;;8.90;4.55;;;-0.50;99.90;;;;;;6217557;23;20228;-65
2022/02/12 08:49:22;;;;;;;15.13;4.55;;;-0.40;99.90;;;;;;6218897;23;20451;-64
2022/02/12 08:51:47;;;;;;;12.63;4.68;;;-0.40;99.90;;;;;;6218725;23;20173;-64
2022/02/12 08:54:13;;;;;;;11.18;4.35;;;-0.30;99.90;;;;;;6219068;23;20153;-65
2022/02/12 08:56:40;;;;;;;10.55;4.25;;;-0.20;99.90;;;;;;6224269;23;20148;-63
2022/02/12 08:59:06;;;;;;;12.55;4.88;;;-0.20;99.90;;;;;;6221872;23;20145;-64
2022/02/12 09:01:33;;;;;;;20.27;5.00;;;-0.10;99.90;;;;;;6222546;23;20160;-64
2022/02/12 09:03:59;;;;;;;16.27;4.72;;;0.00;99.90;;;;;;6223582;23;20496;-64
2022/02/12 09:06:25;;;;;;;10.90;5.25;;;0.00;99.90;;;;;;6222536;23;20212;-65
2022/02/12 09:08:55;;;;;;;11.25;5.13;;;0.10;99.90;;;;;;6221368;23;20153;-64
2022/02/12 09:11:22;;;;;;;10.00;4.47;;;0.20;99.90;;;;;;6222067;23;20165;-63
2022/02/12 09:13:49;;;;;;;11.77;4.85;;;0.30;99.90;;;;;;6222280;23;20148;-64
2022/02/12 09:16:16;;;;;;;11.95;4.68;;;0.40;99.90;;;;;;6221775;23;20145;-64
2022/02/12 09:18:41;;;;;;;10.52;4.47;;;0.50;99.90;;;;;;6221684;23;20137;-64
2022/02/12 09:21:07;;;;;;;13.73;5.03;;;0.50;99.90;;;;;;6220943;23;20623;-64
2022/02/12 09:23:32;;;;;;;10.43;4.80;;;0.60;99.90;;;;;;6218458;23;20149;-64
2022/02/12 09:25:58;;;;;;;10.95;4.70;;;0.70;99.90;;;;;;6218439;23;20152;-65
2022/02/12 09:28:23;;;;;;;9.80;4.43;;;0.80;99.90;;;;;;6218052;23;20202;-64
2022/02/12 09:30:49;;;;;;;13.05;4.05;;;0.80;99.90;;;;;;6217727;23;20177;-65
2022/02/12 09:33:14;;;;;;;8.68;4.05;;;0.90;99.90;;;;;;6218111;23;20126;-63
2022/02/12 09:35:40;;;;;;;12.90;5.03;;;1.00;99.90;;;;;;6218476;23;20151;-64
2022/02/12 09:38:05;;;;;;;11.95;4.43;;;1.00;99.90;;;;;;6217302;23;20148;-64
2022/02/12 09:40:31;;;;;;;9.25;3.92;;;1.10;99.90;;;;;;6219399;23;20164;-64
2022/02/12 09:43:01;;;;;;;7.95;4.18;;;1.20;99.90;;;;;;6223157;23;20217;-64
2022/02/12 09:45:29;;;;;;;6.78;3.83;;;1.30;99.90;;;;;;6217917;23;20583;-64
2022/02/12 09:47:55;;;;;;;11.48;3.60;;;1.40;99.90;;;;;;6216444;23;20518;-64
2022/02/12 09:50:22;;;;;;;7.55;3.55;;;1.40;99.90;;;;;;6217277;23;20165;-65
2022/02/12 09:52:51;;;;;;;12.20;3.28;;;1.50;99.90;;;;;;6217728;23;20174;-64
2022/02/12 09:55:17;;;;;;;10.80;3.22;;;1.50;99.90;;;;;;6217467;23;20149;-64
2022/02/12 09:57:43;;;;;;;6.85;2.95;;;1.60;99.90;;;;;;6217309;23;20203;-64
2022/02/12 10:00:11;;;;;;;14.05;3.30;;;1.70;99.90;;;;;;6216157;23;20149;-66
2022/02/12 10:02:37;;;;;;;8.73;2.95;;;1.80;99.90;;;;;;6217675;23;20159;-64
2022/02/12 10:05:20;;;;;;;6.65;2.80;;;1.90;99.90;;;;;;6217506;23;20144;-64
2022/02/12 10:07:50;;;;;;;7.35;2.85;;;2.00;99.90;;;;;;6217838;23;20435;-64
2022/02/12 10:10:17;;;;;;;8.63;2.63;;;2.10;99.90;;;;;;6217423;23;20180;-64
2022/02/12 10:12:43;;;;;;;11.70;2.63;;;2.10;99.90;;;;;;6217847;23;20448;-64
2022/02/12 10:15:29;;;;;;;4.57;2.40;;;2.20;99.90;;;;;;6215995;23;20137;-64
2022/02/12 10:17:59;;;;;;;8.95;2.80;;;2.30;99.90;;;;;;6217490;23;20489;-64
2022/02/12 10:20:32;;;;;;;5.68;2.28;;;2.40;99.90;;;;;;6218106;23;20160;-64
2022/02/12 10:23:09;;;;;;;7.63;2.30;;;2.40;99.90;;;;;;6217637;23;20156;-63
2022/02/12 10:25:38;;;;;;;5.55;2.20;;;2.50;99.90;;;;;;6217394;23;20147;-66
2022/02/12 10:28:05;;;;;;;5.78;2.10;;;2.60;99.90;;;;;;6217202;23;20152;-65
2022/02/12 10:30:31;;;;;;;8.32;2.00;;;2.60;99.90;;;;;;6216857;23;20168;-63
2022/02/12 10:33:02;;;;;;;9.48;2.17;;;2.60;99.90;;;;;;6216185;23;20711;-64
2022/02/12 10:35:29;;;;;;;8.20;2.35;;;2.70;99.90;;;;;;6217611;23;20141;-64
2022/02/12 10:38:03;;;;;;;9.27;2.50;;;2.70;99.90;;;;;;6217631;23;20224;-63
2022/02/12 10:40:30;;;;;;;8.30;1.88;;;2.80;99.90;;;;;;6216693;23;20212;-63
2022/02/12 10:42:56;;;;;;;7.40;1.80;;;2.80;99.90;;;;;;6216294;23;20567;-63
2022/02/12 10:45:25;;;;;;;3.78;1.92;;;2.90;99.90;;;;;;6216759;23;20149;-64
2022/02/12 10:47:50;;;;;;;7.65;2.10;;;3.00;99.90;;;;;;6216813;23;20156;-64
2022/02/12 10:50:17;;;;;;;11.63;2.08;;;3.00;99.90;;;;;;6216223;23;20530;-63
2022/02/12 10:52:44;;;;;;;8.55;2.00;;;3.10;99.90;;;;;;6216295;23;20145;-64
2022/02/12 10:55:31;;;;;;;4.32;1.60;;;3.20;99.90;;;;;;6216660;23;20149;-64
2022/02/12 10:58:13;;;;;;;9.32;2.15;;;3.30;99.90;;;;;;6216718;23;20156;-64
2022/02/12 11:00:40;;;;;;;4.45;1.83;;;3.30;99.90;;;;;;6216517;23;20202;-64
2022/02/12 11:03:12;;;;;;;5.82;1.65;;;3.50;99.90;;;;;;6216775;23;20442;-64
2022/02/12 11:05:40;;;;;;;5.88;1.70;;;3.60;99.90;;;;;;6223671;23;20140;-64
2022/02/12 11:08:07;;;;;;;4.85;1.90;;;3.70;99.90;;;;;;6220830;23;20549;-64
2022/02/12 11:10:33;;;;;;;12.55;2.03;;;3.80;99.90;;;;;;6216610;23;20168;-64
2022/02/12 11:12:59;;;;;;;3.45;1.58;;;3.90;99.90;;;;;;6216486;23;20152;-64
2022/02/12 11:15:27;;;;;;;5.07;1.88;;;4.00;99.90;;;;;;6215466;23;20150;-64
2022/02/12 11:17:53;;;;;;;4.95;1.65;;;4.10;99.90;;;;;;6215025;23;20155;-64
2022/02/12 11:20:20;;;;;;;7.57;1.83;;;4.20;99.90;;;;;;6216266;23;20149;-65
2022/02/12 11:22:47;;;;;;;8.20;2.00;;;4.20;99.90;;;;;;6214913;23;20152;-63
2022/02/12 11:25:47;;;;;;;6.40;1.65;;;4.30;99.90;;;;;;6216324;23;20169;-63
2022/02/12 11:28:13;;;;;;;2.97;1.55;;;4.30;99.90;;;;;;6188691;23;20152;-63
2022/02/12 11:30:40;;;;;;;9.95;1.70;;;4.40;99.90;;;;;;6213696;23;20573;-63
2022/02/12 11:33:20;;;;;;;2.53;1.23;;;4.40;99.90;;;;;;6214323;23;20160;-64
2022/02/12 11:36:10;;;;;;;5.60;1.70;;;4.50;99.90;;;;;;6213783;23;20128;-64
2022/02/12 11:38:37;;;;;;;4.05;1.60;;;4.60;99.90;;;;;;6213452;23;20148;-63
2022/02/12 11:41:22;;;;;;;6.18;1.77;;;4.60;99.90;;;;;;6213602;23;20148;-64
2022/02/12 11:43:48;;;;;;;8.25;1.70;;;4.60;99.90;;;;;;6213741;23;20302;-64
2022/02/12 11:46:14;;;;;;;5.72;1.60;;;4.60;99.90;;;;;;6213721;23;20511;-64
2022/02/12 11:48:40;;;;;;;5.43;1.75;;;4.70;99.90;;;;;;6213984;23;20144;-64
2022/02/12 11:51:11;;;;;;;5.20;1.33;;;4.70;99.90;;;;;;6188434;23;20238;-64
2022/02/12 11:53:46;;;;;;;6.18;1.90;;;4.70;99.90;;;;;;6214429;23;20586;-64
2022/02/12 11:56:37;;;;;;;12.55;2.40;;;4.80;99.90;;;;;;6191805;23;20133;-63
2022/02/12 11:59:03;;;;;;;5.07;1.50;;;4.90;99.90;;;;;;6215766;23;20505;-64
2022/02/12 12:01:29;;;;;;;6.57;1.95;;;4.90;99.90;;;;;;6215230;23;20521;-63
2022/02/12 12:04:14;;;;;;;8.45;1.77;;;4.90;99.90;;;;;;6217263;23;20152;-63
2022/02/12 12:07:01;;;;;;;3.20;1.48;;;4.90;99.90;;;;;;6219343;23;20140;-64
2022/02/12 12:09:33;;;;;;;5.07;1.63;;;5.00;99.90;;;;;;6218964;23;20437;-64
2022/02/12 12:12:10;;;;;;;3.25;1.50;;;5.00;99.90;;;;;;6217865;23;20172;-64
2022/02/12 12:14:39;;;;;;;8.35;2.10;;;5.10;99.90;;;;;;6219469;23;20141;-64
2022/02/12 12:17:06;;;;;;;6.20;1.83;;;5.10;99.90;;;;;;6220248;23;20140;-63
2022/02/12 12:19:36;;;;;;;6.38;1.58;;;5.10;99.90;;;;;;6219306;23;20465;-63
2022/02/12 12:22:10;;;;;;;3.78;1.63;;;5.20;99.90;;;;;;6219188;23;20129;-64
2022/02/12 12:24:37;;;;;;;4.00;1.90;;;5.20;99.90;;;;;;6230092;23;20129;-64
2022/02/12 12:27:03;;;;;;;6.95;1.83;;;5.20;99.90;;;;;;6217878;23;20224;-64
2022/02/12 12:32:18;;;;;;;7.68;2.10;;;5.30;99.90;;;;;;6217886;23;20167;-64
2022/02/12 12:34:54;;;;;;;3.22;1.77;;;5.30;99.90;;;;;;6218408;23;20176;-64
2022/02/12 12:37:22;;;;;;;6.55;2.00;;;5.30;99.90;;;;;;6217239;23;20180;-64
2022/02/12 12:39:47;;;;;;;8.18;2.42;;;5.30;99.90;;;;;;6217999;23;20149;-64
2022/02/12 12:42:20;;;;;;;7.20;2.05;;;5.40;99.90;;;;;;6217587;23;20469;-64
2022/02/12 12:45:06;;;;;;;6.10;1.98;;;5.40;99.90;;;;;;6217878;23;20496;-64
2022/02/12 12:47:32;;;;;;;4.78;2.05;;;5.40;99.90;;;;;;6216627;23;20129;-64
2022/02/12 12:49:59;;;;;;;6.53;2.00;;;5.40;99.90;;;;;;6218732;23;20218;-64
2022/02/12 12:52:27;;;;;;;3.83;1.55;;;5.40;99.90;;;;;;6218442;23;20152;-64